Eureka Springs, Arkansas
Current Conditions -  °F | °C
As of 1:57 AM on Friday 24 Oct 2014 (Local Time) from KROG Reporting Station
Scattered Clouds Scattered Clouds  
Wind Chill: 50°   Ceiling: Unl
Heat Index: 50°   Visibility: 7mi
Dew Point: 49°   Wind: 0mph
Humidity: 96%   Direction: NA
Pressure: 30.15"   Gusts: NA
Location:  36.4°N, 93.74°W
Report Text: KROG 240657Z AUTO 00000KT 7SM SCT043 10/09 A3015 RMK AO2 SLP206 T01000094
Loading
Personal Weather Stations






























Interactive Weather Map
Tropical Storm Tracking
New forecast layout! Learn more

10-Day Weather Forecast

Advertisements
Track Severe Weather on mobile